createdAt,value
2022-09-23T00:00:06.566Z,0.00
2022-09-23T00:01:06.389Z,0.00
2022-09-23T00:02:06.596Z,0.00
2022-09-23T00:03:06.389Z,0.00
2022-09-23T00:04:06.301Z,0.00
2022-09-23T00:05:06.263Z,0.00
2022-09-23T00:06:06.262Z,0.00
2022-09-23T00:07:06.210Z,0.00
2022-09-23T00:08:06.229Z,0.00
2022-09-23T00:09:06.273Z,0.00
2022-09-23T00:10:06.178Z,0.00
2022-09-23T00:11:06.224Z,0.00
2022-09-23T00:12:08.999Z,0.00
2022-09-23T00:13:06.173Z,0.00
2022-09-23T00:14:05.178Z,0.00
2022-09-23T00:15:06.163Z,0.00
2022-09-23T00:16:06.090Z,0.00
2022-09-23T00:17:06.216Z,0.00
2022-09-23T00:18:06.062Z,0.00
2022-09-23T00:19:06.463Z,0.00
2022-09-23T00:20:06.053Z,0.00
2022-09-23T00:21:05.030Z,0.00
2022-09-23T00:22:06.020Z,0.00
2022-09-23T00:23:05.998Z,0.00
2022-09-23T00:24:06.149Z,0.00
2022-09-23T00:25:05.950Z,0.00
2022-09-23T00:26:05.948Z,0.00
2022-09-23T00:27:05.928Z,0.00
2022-09-23T00:28:05.945Z,0.00
2022-09-23T00:29:05.914Z,0.00
2022-09-23T00:30:05.910Z,0.00
2022-09-23T00:31:05.986Z,0.00
2022-09-23T00:32:05.890Z,0.00
2022-09-23T00:33:05.863Z,0.00
2022-09-23T00:34:05.861Z,0.00
2022-09-23T00:35:05.840Z,0.00
2022-09-23T00:36:05.808Z,0.00
2022-09-23T00:37:05.811Z,0.00
2022-09-23T00:38:05.821Z,0.00
2022-09-23T00:39:05.929Z,0.00
2022-09-23T00:40:05.789Z,0.00
2022-09-23T00:41:05.738Z,0.00
2022-09-23T00:42:05.747Z,0.00
2022-09-23T00:43:05.753Z,0.00
2022-09-23T00:44:05.695Z,0.00
2022-09-23T00:45:05.691Z,0.00
2022-09-23T00:46:05.700Z,0.00
2022-09-23T00:47:05.677Z,0.00
2022-09-23T00:48:05.644Z,0.00
2022-09-23T00:49:05.625Z,0.00
2022-09-23T00:50:05.621Z,0.00
2022-09-23T00:51:05.610Z,0.00
2022-09-23T00:52:05.778Z,0.00
2022-09-23T00:53:05.572Z,0.00
2022-09-23T00:54:05.678Z,0.00
2022-09-23T00:55:05.548Z,0.00
2022-09-23T00:56:05.553Z,0.00
2022-09-23T00:57:05.661Z,0.00
2022-09-23T00:58:05.511Z,0.00
2022-09-23T00:59:05.499Z,0.00
2022-09-23T01:00:05.495Z,0.00
2022-09-23T01:01:05.517Z,0.00
2022-09-23T01:02:05.585Z,0.00
2022-09-23T01:03:05.463Z,0.00
2022-09-23T01:04:05.424Z,0.00
2022-09-23T01:05:05.434Z,0.00
2022-09-23T01:06:05.489Z,0.00
2022-09-23T01:07:05.425Z,0.00
2022-09-23T01:08:05.417Z,0.00
2022-09-23T01:09:05.449Z,0.00
2022-09-23T01:10:05.370Z,0.00
2022-09-23T01:11:05.332Z,0.00
2022-09-23T01:12:05.349Z,0.00
2022-09-23T01:13:05.303Z,0.00
2022-09-23T01:14:05.291Z,0.00
2022-09-23T01:15:05.341Z,0.00
2022-09-23T01:16:05.339Z,0.00
2022-09-23T01:17:05.309Z,0.00
2022-09-23T01:18:05.237Z,0.00
2022-09-23T01:19:05.221Z,0.00
2022-09-23T01:20:05.226Z,0.00
2022-09-23T01:21:05.209Z,0.00
2022-09-23T01:22:05.210Z,0.00
2022-09-23T01:23:05.277Z,0.00
2022-09-23T01:24:05.262Z,0.00
2022-09-23T01:25:05.256Z,0.00
2022-09-23T01:26:05.158Z,0.00
2022-09-23T01:27:05.243Z,0.00
2022-09-23T01:28:05.152Z,0.00
2022-09-23T01:29:05.082Z,0.00
2022-09-23T01:30:05.090Z,0.00
2022-09-23T01:31:05.161Z,0.00
2022-09-23T01:32:05.100Z,0.00
2022-09-23T01:33:05.075Z,0.00
2022-09-23T01:34:05.047Z,0.00
2022-09-23T01:35:05.023Z,0.00
2022-09-23T01:36:05.001Z,0.00
2022-09-23T01:37:05.011Z,0.00
2022-09-23T01:38:04.994Z,0.00
2022-09-23T01:39:05.050Z,0.00
2022-09-23T01:40:05.119Z,0.00
2022-09-23T01:41:05.004Z,0.00
2022-09-23T01:42:04.958Z,0.00
2022-09-23T01:43:05.040Z,0.00
2022-09-23T01:44:04.906Z,0.00
2022-09-23T01:45:04.918Z,0.00
2022-09-23T01:46:04.882Z,0.00
2022-09-23T01:47:04.911Z,0.00
2022-09-23T01:48:04.928Z,0.00
2022-09-23T01:49:04.819Z,0.00
2022-09-23T01:50:04.812Z,0.00
2022-09-23T01:51:04.801Z,0.00
2022-09-23T01:52:04.808Z,0.00
2022-09-23T01:53:04.772Z,0.00
2022-09-23T01:54:04.758Z,0.00
2022-09-23T01:55:04.761Z,0.00
2022-09-23T01:56:04.737Z,0.00
2022-09-23T01:57:04.734Z,0.00
2022-09-23T01:58:04.743Z,0.00
2022-09-23T01:59:04.695Z,0.00
2022-09-23T02:00:04.745Z,0.00
2022-09-23T02:01:04.690Z,0.00
2022-09-23T02:02:04.844Z,0.00
2022-09-23T02:03:04.651Z,0.00
2022-09-23T02:04:04.617Z,0.00
2022-09-23T02:05:04.623Z,0.00
2022-09-23T02:06:04.633Z,0.00
2022-09-23T02:07:04.577Z,0.00
2022-09-23T02:08:04.595Z,0.00
2022-09-23T02:09:04.589Z,0.00
2022-09-23T02:10:04.601Z,0.00
2022-09-23T02:11:04.589Z,0.00
2022-09-23T02:12:04.512Z,0.00
2022-09-23T02:13:04.489Z,0.00
2022-09-23T02:14:04.581Z,0.00
2022-09-23T02:15:04.465Z,0.00
2022-09-23T02:16:04.507Z,0.00
2022-09-23T02:17:04.442Z,0.00
2022-09-23T02:18:04.431Z,0.00
2022-09-23T02:19:04.411Z,0.00
2022-09-23T02:20:04.396Z,0.00
2022-09-23T02:21:04.396Z,0.00
2022-09-23T02:22:04.364Z,0.00
2022-09-23T02:23:04.369Z,0.00
2022-09-23T02:24:04.343Z,0.00
2022-09-23T02:25:04.326Z,0.00
2022-09-23T02:26:04.446Z,0.00
2022-09-23T02:27:04.290Z,0.00
2022-09-23T02:28:04.310Z,0.00
2022-09-23T02:29:04.277Z,0.00
2022-09-23T02:30:04.267Z,0.00
2022-09-23T02:31:04.290Z,0.00
2022-09-23T02:32:04.272Z,0.00
2022-09-23T02:33:04.302Z,0.00
2022-09-23T02:34:04.249Z,0.00
2022-09-23T02:35:04.220Z,0.00
2022-09-23T02:36:04.193Z,0.00
2022-09-23T02:37:04.230Z,0.00
2022-09-23T02:38:04.180Z,0.00
2022-09-23T02:39:04.143Z,0.00
2022-09-23T02:40:04.215Z,0.00
2022-09-23T02:41:04.124Z,0.00
2022-09-23T02:42:04.099Z,0.00
2022-09-23T02:43:04.170Z,0.00
2022-09-23T02:44:04.131Z,0.00
2022-09-23T02:45:04.068Z,0.00
2022-09-23T02:46:04.160Z,0.00
2022-09-23T02:47:04.046Z,0.00
2022-09-23T02:48:04.049Z,0.00
2022-09-23T02:49:03.999Z,0.00
2022-09-23T02:50:04.019Z,0.00
2022-09-23T02:51:03.986Z,0.00
2022-09-23T02:52:04.000Z,0.00
2022-09-23T02:53:03.935Z,0.00
2022-09-23T02:54:04.072Z,0.00
2022-09-23T02:55:03.938Z,0.00
2022-09-23T02:56:03.926Z,0.00
2022-09-23T02:57:03.929Z,0.00
2022-09-23T02:58:03.925Z,0.00
2022-09-23T02:59:04.004Z,0.00
2022-09-23T03:00:04.697Z,0.00
2022-09-23T03:01:03.873Z,0.00
2022-09-23T03:02:03.897Z,0.00
2022-09-23T03:03:03.827Z,0.00
2022-09-23T03:04:03.837Z,0.00
2022-09-23T03:05:03.813Z,0.00
2022-09-23T03:06:03.830Z,0.00
2022-09-23T03:07:03.774Z,0.00
2022-09-23T03:08:03.782Z,0.00
2022-09-23T03:09:03.758Z,0.00
2022-09-23T03:10:03.748Z,0.00
2022-09-23T03:11:03.754Z,0.00
2022-09-23T03:12:03.759Z,0.00
2022-09-23T03:13:03.686Z,0.00
2022-09-23T03:14:03.789Z,0.00
2022-09-23T03:15:03.668Z,0.00
2022-09-23T03:16:03.684Z,0.00
2022-09-23T03:17:03.623Z,0.00
2022-09-23T03:18:03.644Z,0.00
2022-09-23T03:19:03.595Z,0.00
2022-09-23T03:20:03.613Z,0.00
2022-09-23T03:21:03.630Z,0.00
2022-09-23T03:22:03.636Z,0.00
2022-09-23T03:23:03.600Z,0.00
2022-09-23T03:24:03.637Z,0.00
2022-09-23T03:25:03.546Z,0.00
2022-09-23T03:26:03.505Z,0.00
2022-09-23T03:27:03.485Z,0.00
2022-09-23T03:28:03.496Z,0.00
2022-09-23T03:29:03.479Z,0.00
2022-09-23T03:30:03.526Z,0.00
2022-09-23T03:31:03.529Z,0.00
2022-09-23T03:32:03.593Z,0.00
2022-09-23T03:33:03.429Z,0.00
2022-09-23T03:34:03.415Z,0.00
2022-09-23T03:35:03.380Z,0.00
2022-09-23T03:36:03.372Z,0.00
2022-09-23T03:37:03.358Z,0.00
2022-09-23T03:38:03.355Z,0.00
2022-09-23T03:39:03.861Z,0.00
2022-09-23T03:40:03.324Z,0.00
2022-09-23T03:41:03.372Z,0.00
2022-09-23T03:42:03.293Z,0.00
2022-09-23T03:43:03.343Z,0.00
2022-09-23T03:44:03.264Z,0.00
2022-09-23T03:45:03.387Z,0.00
2022-09-23T03:46:03.314Z,0.00
2022-09-23T03:47:03.262Z,0.00
2022-09-23T03:48:03.213Z,0.00
2022-09-23T03:49:03.237Z,0.00
2022-09-23T03:50:03.992Z,0.00
2022-09-23T03:51:03.251Z,0.00
2022-09-23T03:52:03.159Z,0.00
2022-09-23T03:53:03.143Z,0.00
2022-09-23T03:54:03.151Z,0.00
2022-09-23T03:55:03.121Z,0.00
2022-09-23T03:56:03.117Z,0.00
2022-09-23T03:57:03.081Z,0.00
2022-09-23T03:58:03.114Z,0.00
2022-09-23T03:59:02.050Z,0.00
2022-09-23T04:00:03.051Z,0.00
2022-09-23T04:01:03.079Z,0.00
2022-09-23T04:02:03.110Z,0.00
2022-09-23T04:03:03.024Z,0.00
2022-09-23T04:04:03.129Z,0.00
2022-09-23T04:05:02.990Z,0.00
2022-09-23T04:06:02.979Z,0.00
2022-09-23T04:07:02.982Z,0.00
2022-09-23T04:08:02.945Z,0.00
2022-09-23T04:09:02.956Z,0.00
2022-09-23T04:10:02.959Z,0.00
2022-09-23T04:11:02.914Z,0.00
2022-09-23T04:12:02.982Z,0.00
2022-09-23T04:13:02.938Z,0.00
2022-09-23T04:14:02.870Z,0.00
2022-09-23T04:15:02.851Z,0.00
2022-09-23T04:16:02.904Z,0.00
2022-09-23T04:17:02.815Z,0.00
2022-09-23T04:18:02.815Z,0.00
2022-09-23T04:19:02.919Z,0.00
2022-09-23T04:20:02.853Z,0.00
2022-09-23T04:21:02.833Z,0.00
2022-09-23T04:22:02.750Z,0.00
2022-09-23T04:23:02.767Z,0.00
2022-09-23T04:24:02.776Z,0.00
2022-09-23T04:25:02.727Z,0.00
2022-09-23T04:26:02.745Z,0.00
2022-09-23T04:27:02.699Z,0.00
2022-09-23T04:28:02.673Z,0.00
2022-09-23T04:29:02.730Z,0.00
2022-09-23T04:30:02.824Z,0.00
2022-09-23T04:31:02.662Z,0.00
2022-09-23T04:32:02.639Z,0.00
2022-09-23T04:33:02.607Z,0.00
2022-09-23T04:34:02.671Z,0.00
2022-09-23T04:35:02.668Z,0.00
2022-09-23T04:36:02.571Z,0.00
2022-09-23T04:37:02.675Z,0.00
2022-09-23T04:38:02.543Z,0.00
2022-09-23T04:39:02.589Z,0.00
2022-09-23T04:40:02.503Z,0.00
2022-09-23T04:41:02.557Z,0.00
2022-09-23T04:42:02.484Z,0.00
2022-09-23T04:43:02.571Z,0.00
2022-09-23T04:44:02.476Z,0.00
2022-09-23T04:45:02.482Z,0.00
2022-09-23T04:46:02.463Z,0.00
2022-09-23T04:47:02.483Z,0.00
2022-09-23T04:48:02.617Z,0.00
2022-09-23T04:49:02.428Z,0.00
2022-09-23T04:50:02.382Z,0.00
2022-09-23T04:51:02.433Z,0.00
2022-09-23T04:52:02.388Z,0.00
2022-09-23T04:53:02.357Z,0.00
2022-09-23T04:54:02.350Z,0.00
2022-09-23T04:55:02.380Z,0.00
2022-09-23T04:56:02.298Z,0.00
2022-09-23T04:57:02.421Z,0.00
2022-09-23T04:58:02.276Z,0.00
2022-09-23T04:59:02.375Z,0.00
2022-09-23T05:00:02.247Z,0.00
2022-09-23T05:01:05.252Z,0.00
2022-09-23T05:02:02.291Z,0.00
2022-09-23T05:03:02.208Z,0.00
2022-09-23T05:04:02.218Z,0.00
2022-09-23T05:05:02.183Z,0.00
2022-09-23T05:06:02.192Z,0.00
2022-09-23T05:07:03.478Z,0.00
2022-09-23T05:08:02.145Z,0.00
2022-09-23T05:09:02.215Z,0.00
2022-09-23T05:10:02.150Z,0.00
2022-09-23T05:11:02.159Z,0.00
2022-09-23T05:12:02.079Z,0.00
2022-09-23T05:13:02.070Z,0.00
2022-09-23T05:14:02.164Z,0.00
2022-09-23T05:15:02.051Z,0.00
2022-09-23T05:16:02.071Z,0.00
2022-09-23T05:17:02.015Z,0.00
2022-09-23T05:18:02.016Z,0.00
2022-09-23T05:19:02.012Z,0.00
2022-09-23T05:20:02.065Z,0.00
2022-09-23T05:21:01.992Z,0.00
2022-09-23T05:22:02.004Z,0.00
2022-09-23T05:23:01.956Z,0.00
2022-09-23T05:24:01.974Z,0.00
2022-09-23T05:25:01.940Z,5.62
2022-09-23T05:26:01.902Z,5.62
2022-09-23T05:27:01.900Z,5.62
2022-09-23T05:28:01.882Z,5.62
2022-09-23T05:29:01.917Z,5.62
2022-09-23T05:30:01.858Z,5.62
2022-09-23T05:31:01.907Z,5.62
2022-09-23T05:32:01.936Z,5.62
2022-09-23T05:33:01.799Z,5.62
2022-09-23T05:34:01.797Z,11.25
2022-09-23T05:35:01.855Z,11.25
2022-09-23T05:36:01.811Z,11.25
2022-09-23T05:37:01.766Z,11.25
2022-09-23T05:38:01.755Z,11.25
2022-09-23T05:39:01.743Z,11.25
2022-09-23T05:40:00.745Z,11.25
2022-09-23T05:41:01.702Z,11.25
2022-09-23T05:42:01.701Z,16.88
2022-09-23T05:43:01.716Z,16.88
2022-09-23T05:44:01.655Z,16.88
2022-09-23T05:45:01.677Z,16.88
2022-09-23T05:46:03.856Z,16.88
2022-09-23T05:47:01.728Z,16.88
2022-09-23T05:48:01.623Z,16.88
2022-09-23T05:49:03.263Z,16.88
2022-09-23T05:50:01.608Z,22.50
2022-09-23T05:51:01.593Z,22.50
2022-09-23T05:52:01.560Z,22.50
2022-09-23T05:53:01.540Z,22.50
2022-09-23T05:54:01.530Z,22.50
2022-09-23T05:55:01.520Z,22.50
2022-09-23T05:56:01.597Z,22.50
2022-09-23T05:57:04.867Z,22.50
2022-09-23T05:58:01.473Z,28.12
2022-09-23T05:59:01.695Z,28.12
2022-09-23T06:00:01.454Z,28.12
2022-09-23T06:01:01.462Z,28.12
2022-09-23T06:02:01.464Z,28.12
2022-09-23T06:03:01.479Z,33.75
2022-09-23T06:04:01.528Z,33.75
2022-09-23T06:05:02.933Z,33.75
2022-09-23T06:06:02.003Z,33.75
2022-09-23T06:07:03.724Z,33.75
2022-09-23T06:08:01.342Z,33.75
2022-09-23T06:09:01.357Z,33.75
2022-09-23T06:10:01.325Z,33.75
2022-09-23T06:11:01.305Z,33.75
2022-09-23T06:12:01.329Z,33.75
2022-09-23T06:13:01.317Z,33.75
2022-09-23T06:14:01.409Z,33.75
2022-09-23T06:15:01.267Z,33.75
2022-09-23T06:16:01.305Z,33.75
2022-09-23T06:17:01.236Z,33.75
2022-09-23T06:18:01.215Z,33.75
2022-09-23T06:19:05.263Z,33.75
2022-09-23T06:20:01.187Z,33.75
2022-09-23T06:21:02.870Z,33.75
2022-09-23T06:22:05.110Z,33.75
2022-09-23T06:23:01.162Z,33.75
2022-09-23T06:24:01.220Z,33.75
2022-09-23T06:25:01.146Z,33.75
2022-09-23T06:26:01.171Z,33.75
2022-09-23T06:27:01.108Z,33.75
2022-09-23T06:28:01.150Z,33.75
2022-09-23T06:29:01.074Z,33.75
2022-09-23T06:30:01.109Z,39.38
2022-09-23T06:31:01.190Z,39.38
2022-09-23T06:32:01.145Z,39.38
2022-09-23T06:33:01.052Z,39.38
2022-09-23T06:34:12.240Z,39.38
2022-09-23T06:35:01.022Z,39.38
2022-09-23T06:36:00.960Z,39.38
2022-09-23T06:37:11.455Z,39.38
2022-09-23T06:38:00.938Z,45.00
2022-09-23T06:39:00.936Z,45.00
2022-09-23T06:40:00.906Z,45.00
2022-09-23T06:41:00.920Z,45.00
2022-09-23T06:42:00.873Z,45.00
2022-09-23T06:43:00.891Z,45.00
2022-09-23T06:44:00.878Z,45.00
2022-09-23T06:45:00.879Z,45.00
2022-09-23T06:46:00.929Z,45.00
2022-09-23T06:47:00.871Z,45.00
2022-09-23T06:48:00.809Z,50.62
2022-09-23T06:49:00.806Z,50.62
2022-09-23T06:50:00.795Z,50.62
2022-09-23T06:51:00.861Z,50.62
2022-09-23T06:52:00.742Z,50.62
2022-09-23T06:53:00.749Z,50.62
2022-09-23T06:54:00.726Z,56.25
2022-09-23T06:55:00.763Z,56.25
2022-09-23T06:56:00.748Z,56.25
2022-09-23T06:57:00.686Z,61.88
2022-09-23T06:58:00.681Z,61.88
2022-09-23T06:59:00.654Z,61.88
2022-09-23T07:00:00.658Z,61.88
2022-09-23T07:01:00.670Z,61.88
2022-09-23T07:02:00.801Z,61.88
2022-09-23T07:03:00.722Z,61.88
2022-09-23T07:04:00.748Z,67.50
2022-09-23T07:05:00.631Z,67.50
2022-09-23T07:06:00.596Z,67.50
2022-09-23T07:07:01.532Z,67.50
2022-09-23T07:08:00.546Z,67.50
2022-09-23T07:09:00.529Z,73.12
2022-09-23T07:10:00.510Z,67.50
2022-09-23T07:11:00.508Z,67.50
2022-09-23T07:12:00.494Z,73.12
2022-09-23T07:13:00.523Z,73.12
2022-09-23T07:14:00.475Z,73.12
2022-09-23T07:15:00.466Z,73.12
2022-09-23T07:16:00.533Z,73.12
2022-09-23T07:17:00.447Z,73.12
2022-09-23T07:18:00.397Z,73.12
2022-09-23T07:19:00.425Z,78.75
2022-09-23T07:20:00.441Z,78.75
2022-09-23T07:21:00.391Z,78.75
2022-09-23T07:22:00.351Z,78.75
2022-09-23T07:23:00.343Z,78.75
2022-09-23T07:24:00.324Z,78.75
2022-09-23T07:25:00.315Z,84.38
2022-09-23T07:26:00.302Z,84.38
2022-09-23T07:27:00.313Z,84.38
2022-09-23T07:28:00.262Z,84.38
2022-09-23T07:29:00.257Z,84.38
2022-09-23T07:30:00.249Z,84.38
2022-09-23T07:31:01.073Z,84.38
2022-09-23T07:32:09.746Z,84.38
2022-09-23T07:33:00.299Z,84.38
2022-09-23T07:34:00.185Z,90.00
2022-09-23T07:35:00.175Z,90.00
2022-09-23T07:36:00.175Z,90.00
2022-09-23T07:37:00.159Z,84.38
2022-09-23T07:38:00.131Z,84.38
2022-09-23T07:39:00.126Z,84.38
2022-09-23T07:40:00.107Z,90.00
2022-09-23T07:41:00.104Z,90.00
2022-09-23T07:42:00.121Z,90.00
2022-09-23T07:43:00.087Z,90.00
2022-09-23T07:44:00.132Z,90.00
2022-09-23T07:45:00.041Z,90.00
2022-09-23T07:46:00.138Z,90.00
2022-09-23T07:47:00.099Z,90.00
2022-09-23T07:48:00.027Z,90.00
2022-09-23T07:48:59.996Z,90.00
2022-09-23T07:50:00.052Z,95.62
2022-09-23T07:51:00.009Z,95.62
2022-09-23T07:52:02.010Z,95.62
2022-09-23T07:52:59.940Z,101.25
2022-09-23T07:53:59.932Z,101.25
2022-09-23T07:54:59.902Z,106.88
2022-09-23T07:56:00.433Z,106.88
2022-09-23T07:57:01.457Z,106.88
2022-09-23T07:57:59.863Z,106.88
2022-09-23T07:59:00.405Z,112.50
2022-09-23T07:59:59.840Z,112.50
2022-09-23T08:00:59.846Z,112.50
2022-09-23T08:01:59.896Z,112.50
2022-09-23T08:02:59.862Z,112.50
2022-09-23T08:03:59.780Z,112.50
2022-09-23T08:04:59.770Z,106.88
2022-09-23T08:05:59.755Z,106.88
2022-09-23T08:07:00.480Z,106.88
2022-09-23T08:07:59.780Z,106.88
2022-09-23T08:08:59.727Z,106.88
2022-09-23T08:09:59.709Z,106.88
2022-09-23T08:10:59.744Z,106.88
2022-09-23T08:12:01.497Z,106.88
2022-09-23T08:12:59.681Z,106.88
2022-09-23T08:13:59.753Z,106.88
2022-09-23T08:14:59.971Z,106.88
2022-09-23T08:15:59.759Z,106.88
2022-09-23T08:17:01.454Z,106.88
2022-09-23T08:17:59.602Z,106.88
2022-09-23T08:18:59.695Z,106.88
2022-09-23T08:19:59.651Z,106.88
2022-09-23T08:20:59.570Z,106.88
2022-09-23T08:22:01.443Z,106.88
2022-09-23T08:22:59.723Z,106.88
2022-09-23T08:23:59.623Z,112.50
2022-09-23T08:24:59.511Z,112.50
2022-09-23T08:25:59.773Z,112.50
2022-09-23T08:26:59.486Z,118.12
2022-09-23T08:27:59.478Z,118.12
2022-09-23T08:28:59.449Z,123.75
2022-09-23T08:29:59.475Z,123.75
2022-09-23T08:30:59.506Z,129.38
2022-09-23T08:31:59.424Z,129.38
2022-09-23T08:32:59.455Z,129.38
2022-09-23T08:33:59.457Z,135.00
2022-09-23T08:34:59.379Z,135.00
2022-09-23T08:35:59.392Z,140.62
2022-09-23T08:36:59.401Z,140.62
2022-09-23T08:37:59.363Z,151.88
2022-09-23T08:38:59.354Z,146.25
2022-09-23T08:39:59.315Z,151.88
2022-09-23T08:40:59.344Z,151.88
2022-09-23T08:41:59.418Z,157.50
2022-09-23T08:42:59.386Z,157.50
2022-09-23T08:43:59.297Z,157.50
2022-09-23T08:44:59.235Z,157.50
2022-09-23T08:45:59.292Z,157.50
2022-09-23T08:46:59.219Z,157.50
2022-09-23T08:47:59.198Z,157.50
2022-09-23T08:48:59.180Z,151.88
2022-09-23T08:49:59.184Z,151.88
2022-09-23T08:50:59.204Z,151.88
2022-09-23T08:51:59.177Z,151.88
2022-09-23T08:52:59.140Z,151.88
2022-09-23T08:53:59.191Z,151.88
2022-09-23T08:54:59.146Z,157.50
2022-09-23T08:55:59.128Z,157.50
2022-09-23T08:56:59.088Z,151.88
2022-09-23T08:58:24.952Z,157.50
2022-09-23T08:58:59.069Z,157.50
2022-09-23T08:59:59.047Z,157.50
2022-09-23T09:00:59.041Z,157.50
2022-09-23T09:01:59.023Z,151.88
2022-09-23T09:02:59.006Z,151.88
2022-09-23T09:03:58.983Z,151.88
2022-09-23T09:04:59.038Z,151.88
2022-09-23T09:05:58.980Z,151.88
2022-09-23T09:07:12.337Z,151.88
2022-09-23T09:07:59.005Z,151.88
2022-09-23T09:08:58.928Z,151.88
2022-09-23T09:09:59.004Z,151.88
2022-09-23T09:10:58.922Z,151.88
2022-09-23T09:11:58.888Z,151.88
2022-09-23T09:12:58.935Z,151.88
2022-09-23T09:13:58.856Z,151.88
2022-09-23T09:14:58.849Z,157.50
2022-09-23T09:15:58.944Z,157.50
2022-09-23T09:17:00.338Z,157.50
2022-09-23T09:17:58.801Z,157.50
2022-09-23T09:18:58.792Z,157.50
2022-09-23T09:19:58.842Z,157.50
2022-09-23T09:20:58.771Z,157.50
2022-09-23T09:21:58.754Z,157.50
2022-09-23T09:22:58.736Z,157.50
2022-09-23T09:23:58.894Z,157.50
2022-09-23T09:24:58.761Z,163.12
2022-09-23T09:25:58.699Z,163.12
2022-09-23T09:26:58.700Z,163.12
2022-09-23T09:27:58.692Z,163.12
2022-09-23T09:29:02.515Z,163.12
2022-09-23T09:29:58.657Z,163.12
2022-09-23T09:30:58.691Z,163.12
2022-09-23T09:31:58.658Z,163.12
2022-09-23T09:32:57.627Z,163.12
2022-09-23T09:33:58.594Z,168.75
2022-09-23T09:34:58.581Z,168.75
2022-09-23T09:35:58.584Z,168.75
2022-09-23T09:37:01.305Z,168.75
2022-09-23T09:37:58.553Z,168.75
2022-09-23T09:38:58.558Z,168.75
2022-09-23T09:39:58.506Z,168.75
2022-09-23T09:40:58.494Z,174.38
2022-09-23T09:41:58.543Z,174.38
2022-09-23T09:42:58.483Z,174.38
2022-09-23T09:43:58.459Z,174.38
2022-09-23T09:44:58.503Z,174.38
2022-09-23T09:45:58.493Z,174.38
2022-09-23T09:46:58.508Z,174.38
2022-09-23T09:47:58.443Z,174.38
2022-09-23T09:48:58.477Z,174.38
2022-09-23T09:49:58.406Z,174.38
2022-09-23T09:50:58.388Z,174.38
2022-09-23T09:51:58.469Z,174.38
2022-09-23T09:52:58.314Z,174.38
2022-09-23T09:53:58.302Z,174.38
2022-09-23T09:54:58.250Z,174.38
2022-09-23T09:56:03.758Z,174.38
2022-09-23T09:56:58.271Z,174.38
2022-09-23T09:57:58.257Z,180.00
2022-09-23T09:58:58.190Z,180.00
2022-09-23T09:59:58.191Z,180.00
2022-09-23T10:00:58.206Z,180.00
2022-09-23T10:01:58.167Z,180.00
2022-09-23T10:02:58.148Z,185.62
2022-09-23T10:03:59.598Z,185.62
2022-09-23T10:04:58.171Z,185.62
2022-09-23T10:05:58.127Z,185.62
2022-09-23T10:06:58.105Z,185.62
2022-09-23T10:07:58.122Z,185.62
2022-09-23T10:08:58.055Z,185.62
2022-09-23T10:10:01.842Z,185.62
2022-09-23T10:10:58.059Z,185.62
2022-09-23T10:11:58.137Z,180.00
2022-09-23T10:12:58.033Z,180.00
2022-09-23T10:13:58.005Z,180.00
2022-09-23T10:14:57.976Z,180.00
2022-09-23T10:15:57.967Z,180.00
2022-09-23T10:16:57.998Z,180.00
2022-09-23T10:17:57.940Z,174.38
2022-09-23T10:18:57.921Z,174.38
2022-09-23T10:19:57.925Z,180.00
2022-09-23T10:20:57.913Z,174.38
2022-09-23T10:21:57.903Z,180.00
2022-09-23T10:22:57.876Z,180.00
2022-09-23T10:23:57.904Z,180.00
2022-09-23T10:24:57.851Z,185.62
2022-09-23T10:25:57.868Z,185.62
2022-09-23T10:26:57.855Z,185.62
2022-09-23T10:27:57.835Z,185.62
2022-09-23T10:28:57.859Z,185.62
2022-09-23T10:29:57.836Z,191.25
2022-09-23T10:30:57.777Z,191.25
2022-09-23T10:31:57.857Z,185.62
2022-09-23T10:32:57.737Z,185.62
2022-09-23T10:33:57.741Z,185.62
2022-09-23T10:34:57.717Z,185.62
2022-09-23T10:35:57.699Z,191.25
2022-09-23T10:36:57.701Z,191.25
2022-09-23T10:37:57.685Z,191.25
2022-09-23T10:38:57.698Z,191.25
2022-09-23T10:39:57.650Z,191.25
2022-09-23T10:40:57.834Z,191.25
2022-09-23T10:41:57.671Z,191.25
2022-09-23T10:42:57.621Z,191.25
2022-09-23T10:43:57.623Z,196.88
2022-09-23T10:44:57.590Z,191.25
2022-09-23T10:45:57.623Z,191.25
2022-09-23T10:46:57.554Z,191.25
2022-09-23T10:47:57.560Z,191.25
2022-09-23T10:48:57.658Z,191.25
2022-09-23T10:49:57.513Z,191.25
2022-09-23T10:50:59.444Z,191.25
2022-09-23T10:51:57.503Z,191.25
2022-09-23T10:52:57.493Z,191.25
2022-09-23T10:53:57.473Z,191.25
2022-09-23T10:54:57.458Z,196.88
2022-09-23T10:55:57.439Z,191.25
2022-09-23T10:56:59.019Z,191.25
2022-09-23T10:57:57.487Z,191.25
2022-09-23T10:58:57.422Z,185.62
2022-09-23T10:59:57.391Z,185.62
2022-09-23T11:00:57.442Z,185.62
2022-09-23T11:01:57.454Z,185.62
2022-09-23T11:02:57.393Z,185.62
2022-09-23T11:03:57.418Z,185.62
2022-09-23T11:04:57.394Z,185.62
2022-09-23T11:05:57.414Z,185.62
2022-09-23T11:06:57.311Z,185.62
2022-09-23T11:07:57.298Z,185.62
2022-09-23T11:08:57.291Z,185.62
2022-09-23T11:09:57.337Z,185.62
2022-09-23T11:10:57.240Z,180.00
2022-09-23T11:11:57.243Z,180.00
2022-09-23T11:12:57.223Z,180.00
2022-09-23T11:13:57.203Z,174.38
2022-09-23T11:14:57.213Z,174.38
2022-09-23T11:15:57.178Z,174.38
2022-09-23T11:16:57.320Z,174.38
2022-09-23T11:17:57.198Z,174.38
2022-09-23T11:18:57.176Z,174.38
2022-09-23T11:19:57.129Z,180.00
2022-09-23T11:20:57.173Z,174.38
2022-09-23T11:21:57.155Z,174.38
2022-09-23T11:22:57.098Z,180.00
2022-09-23T11:23:57.079Z,180.00
2022-09-23T11:24:57.123Z,185.62
2022-09-23T11:25:57.110Z,191.25
2022-09-23T11:26:57.082Z,196.88
2022-09-23T11:27:57.062Z,202.50
2022-09-23T11:28:56.997Z,202.50
2022-09-23T11:29:56.997Z,202.50
2022-09-23T11:30:57.064Z,202.50
2022-09-23T11:31:59.556Z,196.88
2022-09-23T11:32:57.033Z,191.25
2022-09-23T11:33:56.956Z,185.62
2022-09-23T11:34:57.136Z,180.00
2022-09-23T11:35:56.924Z,180.00
2022-09-23T11:36:56.948Z,180.00
2022-09-23T11:37:56.921Z,174.38
2022-09-23T11:38:56.869Z,174.38
2022-09-23T11:39:56.890Z,174.38
2022-09-23T11:40:56.972Z,174.38
2022-09-23T11:41:56.866Z,168.75
2022-09-23T11:42:56.827Z,168.75
2022-09-23T11:43:56.818Z,168.75
2022-09-23T11:44:56.838Z,168.75
2022-09-23T11:45:56.879Z,163.12
2022-09-23T11:46:56.785Z,163.12
2022-09-23T11:47:56.833Z,157.50
2022-09-23T11:48:56.748Z,157.50
2022-09-23T11:49:56.761Z,151.88
2022-09-23T11:50:56.737Z,146.25
2022-09-23T11:51:56.717Z,146.25
2022-09-23T11:52:56.988Z,146.25
2022-09-23T11:53:56.720Z,151.88
2022-09-23T11:54:56.718Z,151.88
2022-09-23T11:55:58.335Z,157.50
2022-09-23T11:56:56.629Z,151.88
2022-09-23T11:57:56.668Z,151.88
2022-09-23T11:58:59.749Z,151.88
2022-09-23T11:59:56.599Z,157.50
2022-09-23T12:01:00.653Z,157.50
2022-09-23T12:01:56.825Z,157.50
2022-09-23T12:03:04.963Z,157.50
2022-09-23T12:03:57.138Z,157.50
2022-09-23T12:04:58.275Z,168.75
2022-09-23T12:05:56.744Z,163.12
2022-09-23T12:06:56.546Z,168.75
2022-09-23T12:07:56.560Z,163.12
2022-09-23T12:08:56.489Z,163.12
2022-09-23T12:09:58.547Z,163.12
2022-09-23T12:10:56.501Z,163.12
2022-09-23T12:11:56.431Z,168.75
2022-09-23T12:12:56.443Z,168.75
2022-09-23T12:13:56.425Z,174.38
2022-09-23T12:14:56.388Z,174.38
2022-09-23T12:15:56.372Z,174.38
2022-09-23T12:16:56.418Z,174.38
2022-09-23T12:17:56.400Z,174.38
2022-09-23T12:18:56.384Z,174.38
2022-09-23T12:19:56.332Z,180.00
2022-09-23T12:20:56.337Z,174.38
2022-09-23T12:21:56.402Z,174.38
2022-09-23T12:22:56.333Z,180.00
2022-09-23T12:23:56.270Z,174.38
2022-09-23T12:24:56.252Z,174.38
2022-09-23T12:25:56.294Z,174.38
2022-09-23T12:26:56.261Z,174.38
2022-09-23T12:27:56.307Z,174.38
2022-09-23T12:28:56.216Z,168.75
2022-09-23T12:29:56.188Z,163.12
2022-09-23T12:30:56.337Z,157.50
2022-09-23T12:31:56.222Z,151.88
2022-09-23T12:32:56.331Z,146.25
2022-09-23T12:33:56.207Z,146.25
2022-09-23T12:34:56.169Z,146.25
2022-09-23T12:35:56.154Z,146.25
2022-09-23T12:36:56.099Z,146.25
2022-09-23T12:37:56.126Z,151.88
2022-09-23T12:38:56.087Z,157.50
2022-09-23T12:39:56.079Z,157.50
2022-09-23T12:40:56.061Z,163.12
2022-09-23T12:41:56.128Z,163.12
2022-09-23T12:42:56.037Z,163.12
2022-09-23T12:43:56.085Z,163.12
2022-09-23T12:44:56.028Z,163.12
2022-09-23T12:45:56.058Z,163.12
2022-09-23T12:46:57.493Z,163.12
2022-09-23T12:47:56.000Z,163.12
2022-09-23T12:48:56.030Z,163.12
2022-09-23T12:49:55.956Z,163.12
2022-09-23T12:50:55.955Z,163.12
2022-09-23T12:51:55.891Z,163.12
2022-09-23T12:52:55.978Z,163.12